<?xml version="1.0" encoding="UTF-8" standalone="no" ?>
<gpx xmlns="http://www.topografix.com/GPX/1/1" xmlns:xsi="http://www.w3.org/2001/XMLSchema-instance" xsi:schemaLocation="http://www.topografix.com/GPX/1/1 http://www.topografix.com/GPX/1/1/gpx.xsd" version="1.1" creator="VisuGPX - https://www.visugpx.com">
  <metadata>
    <name>trace finale Vag Volcanique</name>
  </metadata>
  <trk>
    <name><![CDATA[trace finale Vag Volcanique]]></name>
    <extensions>
      <line xmlns="http://www.topografix.com/GPX/gpx_style/0/2">
        <color>0000FF</color>
        <width>4</width>
      </line>
    </extensions>
    <trkseg>
      <trkpt lat="45.01945" lon="2.63935">
        <ele>932.6</ele>
        <time>2021-11-05T13:02:33Z</time>
      </trkpt>
      <trkpt lat="45.01949" lon="2.63939">
        <ele>932.5</ele>
        <time>2021-11-05T13:07:00Z</time>
      </trkpt>
      <trkpt lat="45.01948" lon="2.63945">
        <ele>933.2</ele>
        <time>2021-11-05T13:08:32Z</time>
      </trkpt>
      <trkpt lat="45.01945" lon="2.63951">
        <ele>933.3</ele>
        <time>2021-11-05T13:08:37Z</time>
      </trkpt>
      <trkpt lat="45.01943" lon="2.63957">
        <ele>933.3</ele>
        <time>2021-11-05T13:08:47Z</time>
      </trkpt>
      <trkpt lat="45.01948" lon="2.63957">
        <ele>931.2</ele>
        <time>2021-11-05T13:17:10Z</time>
      </trkpt>
      <trkpt lat="45.01943" lon="2.63957">
        <ele>931.5</ele>
        <time>2021-11-05T13:17:20Z</time>
      </trkpt>
      <trkpt lat="45.01957" lon="2.63967">
        <ele>931.3</ele>
        <time>2021-11-05T13:20:05Z</time>
      </trkpt>
      <trkpt lat="45.01961" lon="2.63971">
        <ele>931.2</ele>
        <time>2021-11-05T13:20:09Z</time>
      </trkpt>
      <trkpt lat="45.01966" lon="2.63973">
        <ele>930.8</ele>
        <time>2021-11-05T13:20:21Z</time>
      </trkpt>
      <trkpt lat="45.01971" lon="2.63974">
        <ele>929.6</ele>
        <time>2021-11-05T13:20:34Z</time>
      </trkpt>
      <trkpt lat="45.01976" lon="2.63973">
        <ele>928.8</ele>
        <time>2021-11-05T13:20:38Z</time>
      </trkpt>
      <trkpt lat="45.01981" lon="2.63975">
        <ele>928.3</ele>
        <time>2021-11-05T13:20:42Z</time>
      </trkpt>
      <trkpt lat="45.01995" lon="2.63982">
        <ele>929</ele>
        <time>2021-11-05T13:20:56Z</time>
      </trkpt>
      <trkpt lat="45.02" lon="2.63985">
        <ele>930.7</ele>
        <time>2021-11-05T13:21:33Z</time>
      </trkpt>
      <trkpt lat="45.02004" lon="2.63989">
        <ele>930.9</ele>
        <time>2021-11-05T13:21:38Z</time>
      </trkpt>
      <trkpt lat="45.02008" lon="2.63994">
        <ele>931.1</ele>
        <time>2021-11-05T13:21:42Z</time>
      </trkpt>
      <trkpt lat="45.02011" lon="2.63999">
        <ele>931.3</ele>
        <time>2021-11-05T13:21:46Z</time>
      </trkpt>
      <trkpt lat="45.02016" lon="2.64004">
        <ele>932</ele>
        <time>2021-11-05T13:21:50Z</time>
      </trkpt>
      <trkpt lat="45.02029" lon="2.64021">
        <ele>932.9</ele>
        <time>2021-11-05T13:22:07Z</time>
      </trkpt>
      <trkpt lat="45.02034" lon="2.64026">
        <ele>933.6</ele>
        <time>2021-11-05T13:22:12Z</time>
      </trkpt>
      <trkpt lat="45.02038" lon="2.64029">
        <ele>934.3</ele>
        <time>2021-11-05T13:22:16Z</time>
      </trkpt>
      <trkpt lat="45.02043" lon="2.64032">
        <ele>935.1</ele>
        <time>2021-11-05T13:22:21Z</time>
      </trkpt>
      <trkpt lat="45.02048" lon="2.64035">
        <ele>935.8</ele>
        <time>2021-11-05T13:22:26Z</time>
      </trkpt>
      <trkpt lat="45.02057" lon="2.64044">
        <ele>937.8</ele>
        <time>2021-11-05T13:22:36Z</time>
      </trkpt>
      <trkpt lat="45.02066" lon="2.6405">
        <ele>939</ele>
        <time>2021-11-05T13:22:46Z</time>
      </trkpt>
      <trkpt lat="45.02071" lon="2.64053">
        <ele>939.5</ele>
        <time>2021-11-05T13:22:50Z</time>
      </trkpt>
      <trkpt lat="45.02076" lon="2.64057">
        <ele>940.5</ele>
        <time>2021-11-05T13:22:56Z</time>
      </trkpt>
      <trkpt lat="45.02081" lon="2.64061">
        <ele>942</ele>
        <time>2021-11-05T13:23:02Z</time>
      </trkpt>
      <trkpt lat="45.02086" lon="2.64063">
        <ele>943.3</ele>
        <time>2021-11-05T13:23:08Z</time>
      </trkpt>
      <trkpt lat="45.02094" lon="2.64071">
        <ele>945.2</ele>
        <time>2021-11-05T13:23:17Z</time>
      </trkpt>
      <trkpt lat="45.02104" lon="2.64076">
        <ele>947.6</ele>
        <time>2021-11-05T13:23:26Z</time>
      </trkpt>
      <trkpt lat="45.0211" lon="2.64078">
        <ele>948.6</ele>
        <time>2021-11-05T13:23:31Z</time>
      </trkpt>
      <trkpt lat="45.02113" lon="2.64083">
        <ele>949.4</ele>
        <time>2021-11-05T13:23:35Z</time>
      </trkpt>
      <trkpt lat="45.02116" lon="2.64088">
        <ele>950.3</ele>
        <time>2021-11-05T13:23:39Z</time>
      </trkpt>
      <trkpt lat="45.02124" lon="2.64096">
        <ele>951.9</ele>
        <time>2021-11-05T13:23:48Z</time>
      </trkpt>
      <trkpt lat="45.0212" lon="2.64098">
        <ele>955.5</ele>
        <time>2021-11-05T13:25:13Z</time>
      </trkpt>
      <trkpt lat="45.02124" lon="2.64094">
        <ele>955.7</ele>
        <time>2021-11-05T13:28:05Z</time>
      </trkpt>
      <trkpt lat="45.0213" lon="2.64098">
        <ele>955.6</ele>
        <time>2021-11-05T13:28:08Z</time>
      </trkpt>
      <trkpt lat="45.02134" lon="2.64102">
        <ele>955.6</ele>
        <time>2021-11-05T13:28:11Z</time>
      </trkpt>
      <trkpt lat="45.0214" lon="2.64104">
        <ele>955.9</ele>
        <time>2021-11-05T13:28:15Z</time>
      </trkpt>
      <trkpt lat="45.0215" lon="2.64104">
        <ele>957.1</ele>
        <time>2021-11-05T13:28:24Z</time>
      </trkpt>
      <trkpt lat="45.02155" lon="2.64103">
        <ele>957.3</ele>
        <time>2021-11-05T13:28:28Z</time>
      </trkpt>
      <trkpt lat="45.02164" lon="2.64099">
        <ele>957.2</ele>
        <time>2021-11-05T13:28:38Z</time>
      </trkpt>
      <trkpt lat="45.02169" lon="2.64095">
        <ele>957.2</ele>
        <time>2021-11-05T13:28:44Z</time>
      </trkpt>
      <trkpt lat="45.02175" lon="2.64093">
        <ele>957.1</ele>
        <time>2021-11-05T13:28:48Z</time>
      </trkpt>
      <trkpt lat="45.02186" lon="2.64091">
        <ele>956.6</ele>
        <time>2021-11-05T13:28:58Z</time>
      </trkpt>
      <trkpt lat="45.02192" lon="2.64092">
        <ele>956.6</ele>
        <time>2021-11-05T13:29:03Z</time>
      </trkpt>
      <trkpt lat="45.02196" lon="2.64096">
        <ele>956.9</ele>
        <time>2021-11-05T13:29:07Z</time>
      </trkpt>
      <trkpt lat="45.02205" lon="2.64103">
        <ele>957.3</ele>
        <time>2021-11-05T13:29:17Z</time>
      </trkpt>
      <trkpt lat="45.0221" lon="2.64107">
        <ele>957.6</ele>
        <time>2021-11-05T13:29:23Z</time>
      </trkpt>
      <trkpt lat="45.02215" lon="2.64112">
        <ele>957.9</ele>
        <time>2021-11-05T13:29:27Z</time>
      </trkpt>
      <trkpt lat="45.02222" lon="2.64123">
        <ele>958.7</ele>
        <time>2021-11-05T13:29:34Z</time>
      </trkpt>
      <trkpt lat="45.02226" lon="2.64126">
        <ele>959</ele>
        <time>2021-11-05T13:29:38Z</time>
      </trkpt>
      <trkpt lat="45.0223" lon="2.64131">
        <ele>959.1</ele>
        <time>2021-11-05T13:29:43Z</time>
      </trkpt>
      <trkpt lat="45.02239" lon="2.64139">
        <ele>959.6</ele>
        <time>2021-11-05T13:30:03Z</time>
      </trkpt>
      <trkpt lat="45.02242" lon="2.64144">
        <ele>960.2</ele>
        <time>2021-11-05T13:30:50Z</time>
      </trkpt>
      <trkpt lat="45.02253" lon="2.64152">
        <ele>960.3</ele>
        <time>2021-11-05T13:30:59Z</time>
      </trkpt>
      <trkpt lat="45.02257" lon="2.64156">
        <ele>960.5</ele>
        <time>2021-11-05T13:31:04Z</time>
      </trkpt>
      <trkpt lat="45.02261" lon="2.64161">
        <ele>960.7</ele>
        <time>2021-11-05T13:31:09Z</time>
      </trkpt>
      <trkpt lat="45.02265" lon="2.64167">
        <ele>960.7</ele>
        <time>2021-11-05T13:31:13Z</time>
      </trkpt>
      <trkpt lat="45.02272" lon="2.64177">
        <ele>960.4</ele>
        <time>2021-11-05T13:31:23Z</time>
      </trkpt>
      <trkpt lat="45.02276" lon="2.64183">
        <ele>960</ele>
        <time>2021-11-05T13:31:28Z</time>
      </trkpt>
      <trkpt lat="45.02283" lon="2.64194">
        <ele>959.7</ele>
        <time>2021-11-05T13:31:35Z</time>
      </trkpt>
      <trkpt lat="45.02287" lon="2.64198">
        <ele>959.8</ele>
        <time>2021-11-05T13:31:40Z</time>
      </trkpt>
      <trkpt lat="45.02292" lon="2.64201">
        <ele>961</ele>
        <time>2021-11-05T13:31:45Z</time>
      </trkpt>
      <trkpt lat="45.02296" lon="2.64204">
        <ele>962.7</ele>
        <time>2021-11-05T13:31:50Z</time>
      </trkpt>
      <trkpt lat="45.02305" lon="2.6421">
        <ele>964.5</ele>
        <time>2021-11-05T13:32:22Z</time>
      </trkpt>
      <trkpt lat="45.02314" lon="2.64218">
        <ele>964.7</ele>
        <time>2021-11-05T13:32:31Z</time>
      </trkpt>
      <trkpt lat="45.0232" lon="2.64221">
        <ele>964.7</ele>
        <time>2021-11-05T13:32:35Z</time>
      </trkpt>
      <trkpt lat="45.02325" lon="2.64223">
        <ele>965</ele>
        <time>2021-11-05T13:32:39Z</time>
      </trkpt>
      <trkpt lat="45.0233" lon="2.64227">
        <ele>965.7</ele>
        <time>2021-11-05T13:32:44Z</time>
      </trkpt>
      <trkpt lat="45.02334" lon="2.64231">
        <ele>967</ele>
        <time>2021-11-05T13:32:48Z</time>
      </trkpt>
      <trkpt lat="45.02343" lon="2.64234">
        <ele>968</ele>
        <time>2021-11-05T13:32:55Z</time>
      </trkpt>
      <trkpt lat="45.02352" lon="2.64241">
        <ele>969.6</ele>
        <time>2021-11-05T13:33:03Z</time>
      </trkpt>
      <trkpt lat="45.02356" lon="2.64244">
        <ele>970.7</ele>
        <time>2021-11-05T13:33:11Z</time>
      </trkpt>
      <trkpt lat="45.0236" lon="2.64247">
        <ele>971.3</ele>
        <time>2021-11-05T13:33:23Z</time>
      </trkpt>
      <trkpt lat="45.02365" lon="2.64249">
        <ele>971.3</ele>
        <time>2021-11-05T13:33:25Z</time>
      </trkpt>
      <trkpt lat="45.0237" lon="2.64253">
        <ele>971</ele>
        <time>2021-11-05T13:33:28Z</time>
      </trkpt>
      <trkpt lat="45.02385" lon="2.64264">
        <ele>969.5</ele>
        <time>2021-11-05T13:33:38Z</time>
      </trkpt>
      <trkpt lat="45.0239" lon="2.64266">
        <ele>970.3</ele>
        <time>2021-11-05T13:33:42Z</time>
      </trkpt>
      <trkpt lat="45.02395" lon="2.64268">
        <ele>971.1</ele>
        <time>2021-11-05T13:33:46Z</time>
      </trkpt>
      <trkpt lat="45.02399" lon="2.64271">
        <ele>971.5</ele>
        <time>2021-11-05T13:33:49Z</time>
      </trkpt>
      <trkpt lat="45.02405" lon="2.64272">
        <ele>971.4</ele>
        <time>2021-11-05T13:33:55Z</time>
      </trkpt>
      <trkpt lat="45.02409" lon="2.64275">
        <ele>972.8</ele>
        <time>2021-11-05T13:34:00Z</time>
      </trkpt>
      <trkpt lat="45.02423" lon="2.64282">
        <ele>974.9</ele>
        <time>2021-11-05T13:34:12Z</time>
      </trkpt>
      <trkpt lat="45.02427" lon="2.64287">
        <ele>975.3</ele>
        <time>2021-11-05T13:34:18Z</time>
      </trkpt>
      <trkpt lat="45.02429" lon="2.64292">
        <ele>976.8</ele>
        <time>2021-11-05T13:34:26Z</time>
      </trkpt>
      <trkpt lat="45.02434" lon="2.64295">
        <ele>977</ele>
        <time>2021-11-05T13:34:32Z</time>
      </trkpt>
      <trkpt lat="45.0244" lon="2.64296">
        <ele>977</ele>
        <time>2021-11-05T13:34:37Z</time>
      </trkpt>
      <trkpt lat="45.02446" lon="2.64297">
        <ele>977.9</ele>
        <time>2021-11-05T13:34:42Z</time>
      </trkpt>
      <trkpt lat="45.02462" lon="2.643">
        <ele>979.9</ele>
        <time>2021-11-05T13:35:00Z</time>
      </trkpt>
      <trkpt lat="45.02467" lon="2.643">
        <ele>980.2</ele>
        <time>2021-11-05T13:35:05Z</time>
      </trkpt>
      <trkpt lat="45.02471" lon="2.64303">
        <ele>981.1</ele>
        <time>2021-11-05T13:35:12Z</time>
      </trkpt>
      <trkpt lat="45.02475" lon="2.64307">
        <ele>982.4</ele>
        <time>2021-11-05T13:35:17Z</time>
      </trkpt>
      <trkpt lat="45.02478" lon="2.64313">
        <ele>985.3</ele>
        <time>2021-11-05T13:35:24Z</time>
      </trkpt>
      <trkpt lat="45.02482" lon="2.64317">
        <ele>985.7</ele>
        <time>2021-11-05T13:35:29Z</time>
      </trkpt>
      <trkpt lat="45.02496" lon="2.64318">
        <ele>983.2</ele>
        <time>2021-11-05T13:36:16Z</time>
      </trkpt>
      <trkpt lat="45.02499" lon="2.64323">
        <ele>983.9</ele>
        <time>2021-11-05T13:36:58Z</time>
      </trkpt>
      <trkpt lat="45.02501" lon="2.64329">
        <ele>985.2</ele>
        <time>2021-11-05T13:38:26Z</time>
      </trkpt>
      <trkpt lat="45.02505" lon="2.6433">
        <ele>986.6</ele>
        <time>2021-11-05T13:39:11Z</time>
      </trkpt>
      <trkpt lat="45.0251" lon="2.6433">
        <ele>986.5</ele>
        <time>2021-11-05T13:39:28Z</time>
      </trkpt>
      <trkpt lat="45.02509" lon="2.64332">
        <ele>987.9</ele>
        <time>2021-11-05T13:42:07Z</time>
      </trkpt>
      <trkpt lat="45.02516" lon="2.64334">
        <ele>986.5</ele>
        <time>2021-11-05T13:43:52Z</time>
      </trkpt>
      <trkpt lat="45.02518" lon="2.6434">
        <ele>986.5</ele>
        <time>2021-11-05T13:44:16Z</time>
      </trkpt>
      <trkpt lat="45.02516" lon="2.64346">
        <ele>987.2</ele>
        <time>2021-11-05T13:45:16Z</time>
      </trkpt>
      <trkpt lat="45.02517" lon="2.64352">
        <ele>987.5</ele>
        <time>2021-11-05T13:45:39Z</time>
      </trkpt>
      <trkpt lat="45.02521" lon="2.64353">
        <ele>991.3</ele>
        <time>2021-11-05T13:45:59Z</time>
      </trkpt>
      <trkpt lat="45.02529" lon="2.64358">
        <ele>989.6</ele>
        <time>2021-11-05T13:47:47Z</time>
      </trkpt>
      <trkpt lat="45.02534" lon="2.64369">
        <ele>990.8</ele>
        <time>2021-11-05T13:50:00Z</time>
      </trkpt>
      <trkpt lat="45.02539" lon="2.64371">
        <ele>991.1</ele>
        <time>2021-11-05T13:50:39Z</time>
      </trkpt>
      <trkpt lat="45.02544" lon="2.64375">
        <ele>991.3</ele>
        <time>2021-11-05T13:50:50Z</time>
      </trkpt>
      <trkpt lat="45.02544" lon="2.64383">
        <ele>991.6</ele>
        <time>2021-11-05T13:51:31Z</time>
      </trkpt>
      <trkpt lat="45.02551" lon="2.64382">
        <ele>990.6</ele>
        <time>2021-11-05T13:54:32Z</time>
      </trkpt>
      <trkpt lat="45.02554" lon="2.64387">
        <ele>991.4</ele>
        <time>2021-11-05T13:54:49Z</time>
      </trkpt>
      <trkpt lat="45.02559" lon="2.64398">
        <ele>992.8</ele>
        <time>2021-11-05T13:57:41Z</time>
      </trkpt>
      <trkpt lat="45.02561" lon="2.64404">
        <ele>993.6</ele>
        <time>2021-11-05T13:58:14Z</time>
      </trkpt>
      <trkpt lat="45.02564" lon="2.64408">
        <ele>994</ele>
        <time>2021-11-05T13:58:44Z</time>
      </trkpt>
      <trkpt lat="45.02569" lon="2.64409">
        <ele>992.1</ele>
        <time>2021-11-05T13:59:08Z</time>
      </trkpt>
      <trkpt lat="45.02578" lon="2.64412">
        <ele>993.6</ele>
        <time>2021-11-05T14:00:19Z</time>
      </trkpt>
      <trkpt lat="45.0258" lon="2.64418">
        <ele>993.8</ele>
        <time>2021-11-05T14:00:40Z</time>
      </trkpt>
      <trkpt lat="45.02584" lon="2.64431">
        <ele>994.3</ele>
        <time>2021-11-05T14:00:54Z</time>
      </trkpt>
      <trkpt lat="45.02588" lon="2.64434">
        <ele>994.4</ele>
        <time>2021-11-05T14:00:58Z</time>
      </trkpt>
      <trkpt lat="45.02592" lon="2.64436">
        <ele>994.3</ele>
        <time>2021-11-05T14:01:02Z</time>
      </trkpt>
      <trkpt lat="45.02597" lon="2.64441">
        <ele>994.2</ele>
        <time>2021-11-05T14:01:06Z</time>
      </trkpt>
      <trkpt lat="45.02606" lon="2.64451">
        <ele>994.7</ele>
        <time>2021-11-05T14:01:15Z</time>
      </trkpt>
      <trkpt lat="45.02611" lon="2.64456">
        <ele>995.4</ele>
        <time>2021-11-05T14:01:19Z</time>
      </trkpt>
      <trkpt lat="45.02621" lon="2.64464">
        <ele>998.5</ele>
        <time>2021-11-05T14:01:28Z</time>
      </trkpt>
      <trkpt lat="45.02625" lon="2.64466">
        <ele>999.3</ele>
        <time>2021-11-05T14:01:32Z</time>
      </trkpt>
      <trkpt lat="45.02629" lon="2.64472">
        <ele>999.5</ele>
        <time>2021-11-05T14:01:37Z</time>
      </trkpt>
      <trkpt lat="45.02635" lon="2.64483">
        <ele>999.4</ele>
        <time>2021-11-05T14:01:46Z</time>
      </trkpt>
      <trkpt lat="45.02637" lon="2.64488">
        <ele>1000.8</ele>
        <time>2021-11-05T14:02:00Z</time>
      </trkpt>
      <trkpt lat="45.02639" lon="2.64494">
        <ele>1003</ele>
        <time>2021-11-05T14:02:51Z</time>
      </trkpt>
      <trkpt lat="45.02646" lon="2.64503">
        <ele>1003.6</ele>
        <time>2021-11-05T14:03:44Z</time>
      </trkpt>
      <trkpt lat="45.0265" lon="2.64504">
        <ele>1003.7</ele>
        <time>2021-11-05T14:03:52Z</time>
      </trkpt>
      <trkpt lat="45.02655" lon="2.64504">
        <ele>1004</ele>
        <time>2021-11-05T14:04:05Z</time>
      </trkpt>
      <trkpt lat="45.02663" lon="2.64514">
        <ele>1004</ele>
        <time>2021-11-05T14:04:27Z</time>
      </trkpt>
      <trkpt lat="45.02667" lon="2.64518">
        <ele>1004.4</ele>
        <time>2021-11-05T14:04:50Z</time>
      </trkpt>
      <trkpt lat="45.0267" lon="2.64523">
        <ele>1004.2</ele>
        <time>2021-11-05T14:04:59Z</time>
      </trkpt>
      <trkpt lat="45.0268" lon="2.64529">
        <ele>1005.8</ele>
        <time>2021-11-05T14:05:17Z</time>
      </trkpt>
      <trkpt lat="45.02684" lon="2.6453">
        <ele>1005.5</ele>
        <time>2021-11-05T14:05:22Z</time>
      </trkpt>
      <trkpt lat="45.02691" lon="2.64541">
        <ele>1004.9</ele>
        <time>2021-11-05T14:05:32Z</time>
      </trkpt>
      <trkpt lat="45.02692" lon="2.64548">
        <ele>1005</ele>
        <time>2021-11-05T14:05:36Z</time>
      </trkpt>
      <trkpt lat="45.02694" lon="2.64555">
        <ele>1006</ele>
        <time>2021-11-05T14:05:41Z</time>
      </trkpt>
      <trkpt lat="45.02698" lon="2.6456">
        <ele>1006.9</ele>
        <time>2021-11-05T14:05:49Z</time>
      </trkpt>
      <trkpt lat="45.02704" lon="2.64569">
        <ele>1009.5</ele>
        <time>2021-11-05T14:06:21Z</time>
      </trkpt>
      <trkpt lat="45.02706" lon="2.64574">
        <ele>1009.9</ele>
        <time>2021-11-05T14:06:30Z</time>
      </trkpt>
      <trkpt lat="45.02702" lon="2.64568">
        <ele>1011.4</ele>
        <time>2021-11-05T14:20:32Z</time>
      </trkpt>
      <trkpt lat="45.02698" lon="2.64573">
        <ele>1008.5</ele>
        <time>2021-11-05T14:22:27Z</time>
      </trkpt>
      <trkpt lat="45.02703" lon="2.64574">
        <ele>1009.3</ele>
        <time>2021-11-05T14:23:40Z</time>
      </trkpt>
      <trkpt lat="45.02713" lon="2.64579">
        <ele>1008.8</ele>
        <time>2021-11-05T14:25:17Z</time>
      </trkpt>
      <trkpt lat="45.02716" lon="2.64583">
        <ele>1009.2</ele>
        <time>2021-11-05T14:25:21Z</time>
      </trkpt>
      <trkpt lat="45.02712" lon="2.64586">
        <ele>1014.8</ele>
        <time>2021-11-05T14:25:44Z</time>
      </trkpt>
      <trkpt lat="45.02711" lon="2.64579">
        <ele>1014.7</ele>
        <time>2021-11-05T14:25:49Z</time>
      </trkpt>
      <trkpt lat="45.02708" lon="2.64573">
        <ele>1012.5</ele>
        <time>2021-11-05T14:25:57Z</time>
      </trkpt>
      <trkpt lat="45.02704" lon="2.64571">
        <ele>1011.7</ele>
        <time>2021-11-05T14:27:19Z</time>
      </trkpt>
      <trkpt lat="45.02707" lon="2.64573">
        <ele>1010.4</ele>
        <time>2021-11-05T14:32:38Z</time>
      </trkpt>
      <trkpt lat="45.02713" lon="2.64573">
        <ele>1010.7</ele>
        <time>2021-11-05T14:32:54Z</time>
      </trkpt>
      <trkpt lat="45.02719" lon="2.64585">
        <ele>1010.8</ele>
        <time>2021-11-05T14:33:00Z</time>
      </trkpt>
      <trkpt lat="45.0272" lon="2.64593">
        <ele>1010.8</ele>
        <time>2021-11-05T14:33:04Z</time>
      </trkpt>
      <trkpt lat="45.02721" lon="2.64601">
        <ele>1010.9</ele>
        <time>2021-11-05T14:33:08Z</time>
      </trkpt>
      <trkpt lat="45.02721" lon="2.64608">
        <ele>1010.9</ele>
        <time>2021-11-05T14:33:13Z</time>
      </trkpt>
      <trkpt lat="45.02727" lon="2.64612">
        <ele>1010.1</ele>
        <time>2021-11-05T14:33:52Z</time>
      </trkpt>
      <trkpt lat="45.02735" lon="2.64621">
        <ele>1010.9</ele>
        <time>2021-11-05T14:34:27Z</time>
      </trkpt>
      <trkpt lat="45.0274" lon="2.64623">
        <ele>1009.1</ele>
        <time>2021-11-05T14:34:49Z</time>
      </trkpt>
      <trkpt lat="45.02745" lon="2.64622">
        <ele>1007.3</ele>
        <time>2021-11-05T14:35:05Z</time>
      </trkpt>
      <trkpt lat="45.0275" lon="2.64624">
        <ele>1007.3</ele>
        <time>2021-11-05T14:35:11Z</time>
      </trkpt>
      <trkpt lat="45.02753" lon="2.6463">
        <ele>1006.9</ele>
        <time>2021-11-05T14:35:19Z</time>
      </trkpt>
      <trkpt lat="45.0276" lon="2.64639">
        <ele>1007.4</ele>
        <time>2021-11-05T14:35:27Z</time>
      </trkpt>
      <trkpt lat="45.02766" lon="2.64648">
        <ele>1008.7</ele>
        <time>2021-11-05T14:35:42Z</time>
      </trkpt>
      <trkpt lat="45.0277" lon="2.64643">
        <ele>1008.3</ele>
        <time>2021-11-05T14:35:52Z</time>
      </trkpt>
      <trkpt lat="45.02776" lon="2.64645">
        <ele>1008.9</ele>
        <time>2021-11-05T14:35:59Z</time>
      </trkpt>
      <trkpt lat="45.02782" lon="2.64648">
        <ele>1009.6</ele>
        <time>2021-11-05T14:36:03Z</time>
      </trkpt>
      <trkpt lat="45.02788" lon="2.64651">
        <ele>1010.3</ele>
        <time>2021-11-05T14:36:07Z</time>
      </trkpt>
      <trkpt lat="45.028" lon="2.64661">
        <ele>1012.8</ele>
        <time>2021-11-05T14:36:34Z</time>
      </trkpt>
      <trkpt lat="45.02801" lon="2.64667">
        <ele>1012.8</ele>
        <time>2021-11-05T14:36:38Z</time>
      </trkpt>
      <trkpt lat="45.02804" lon="2.64675">
        <ele>1013.3</ele>
        <time>2021-11-05T14:36:43Z</time>
      </trkpt>
      <trkpt lat="45.02807" lon="2.64682">
        <ele>1014.2</ele>
        <time>2021-11-05T14:36:48Z</time>
      </trkpt>
      <trkpt lat="45.02808" lon="2.64691">
        <ele>1015.8</ele>
        <time>2021-11-05T14:36:52Z</time>
      </trkpt>
      <trkpt lat="45.02807" lon="2.64699">
        <ele>1017.7</ele>
        <time>2021-11-05T14:36:57Z</time>
      </trkpt>
      <trkpt lat="45.028" lon="2.64717">
        <ele>1021.2</ele>
        <time>2021-11-05T14:37:28Z</time>
      </trkpt>
      <trkpt lat="45.02796" lon="2.64723">
        <ele>1021.5</ele>
        <time>2021-11-05T14:37:34Z</time>
      </trkpt>
      <trkpt lat="45.02793" lon="2.64718">
        <ele>1023.2</ele>
        <time>2021-11-05T14:37:54Z</time>
      </trkpt>
      <trkpt lat="45.0279" lon="2.64714">
        <ele>1024.6</ele>
        <time>2021-11-05T14:38:15Z</time>
      </trkpt>
      <trkpt lat="45.0279" lon="2.64721">
        <ele>1026.8</ele>
        <time>2021-11-05T14:38:45Z</time>
      </trkpt>
      <trkpt lat="45.02791" lon="2.64732">
        <ele>1027.3</ele>
        <time>2021-11-05T14:38:50Z</time>
      </trkpt>
      <trkpt lat="45.02796" lon="2.64756">
        <ele>1029.3</ele>
        <time>2021-11-05T14:39:01Z</time>
      </trkpt>
      <trkpt lat="45.02799" lon="2.64762">
        <ele>1029.8</ele>
        <time>2021-11-05T14:39:06Z</time>
      </trkpt>
      <trkpt lat="45.02804" lon="2.64765">
        <ele>1031.6</ele>
        <time>2021-11-05T14:39:26Z</time>
      </trkpt>
      <trkpt lat="45.02806" lon="2.64773">
        <ele>1032.6</ele>
        <time>2021-11-05T14:39:31Z</time>
      </trkpt>
      <trkpt lat="45.02808" lon="2.64779">
        <ele>1033.1</ele>
        <time>2021-11-05T14:39:34Z</time>
      </trkpt>
      <trkpt lat="45.02809" lon="2.64787">
        <ele>1033.7</ele>
        <time>2021-11-05T14:39:38Z</time>
      </trkpt>
      <trkpt lat="45.02819" lon="2.64802">
        <ele>1034.8</ele>
        <time>2021-11-05T14:39:53Z</time>
      </trkpt>
      <trkpt lat="45.02822" lon="2.64809">
        <ele>1035.4</ele>
        <time>2021-11-05T14:39:59Z</time>
      </trkpt>
      <trkpt lat="45.02824" lon="2.64815">
        <ele>1036.4</ele>
        <time>2021-11-05T14:40:03Z</time>
      </trkpt>
      <trkpt lat="45.02827" lon="2.64821">
        <ele>1037.5</ele>
        <time>2021-11-05T14:40:06Z</time>
      </trkpt>
      <trkpt lat="45.0283" lon="2.64828">
        <ele>1038.9</ele>
        <time>2021-11-05T14:40:10Z</time>
      </trkpt>
      <trkpt lat="45.02838" lon="2.64842">
        <ele>1041.1</ele>
        <time>2021-11-05T14:40:18Z</time>
      </trkpt>
      <trkpt lat="45.02845" lon="2.64853">
        <ele>1043.1</ele>
        <time>2021-11-05T14:40:30Z</time>
      </trkpt>
      <trkpt lat="45.02849" lon="2.64858">
        <ele>1044.3</ele>
        <time>2021-11-05T14:40:35Z</time>
      </trkpt>
      <trkpt lat="45.02852" lon="2.64865">
        <ele>1045.1</ele>
        <time>2021-11-05T14:40:41Z</time>
      </trkpt>
      <trkpt lat="45.02855" lon="2.64871">
        <ele>1045.6</ele>
        <time>2021-11-05T14:40:46Z</time>
      </trkpt>
      <trkpt lat="45.02854" lon="2.64877">
        <ele>1045.9</ele>
        <time>2021-11-05T14:40:55Z</time>
      </trkpt>
      <trkpt lat="45.02861" lon="2.64885">
        <ele>1046.7</ele>
        <time>2021-11-05T14:41:30Z</time>
      </trkpt>
      <trkpt lat="45.0287" lon="2.64884">
        <ele>1047.1</ele>
        <time>2021-11-05T14:43:02Z</time>
      </trkpt>
      <trkpt lat="45.02864" lon="2.64884">
        <ele>1047</ele>
        <time>2021-11-05T14:43:32Z</time>
      </trkpt>
      <trkpt lat="45.02869" lon="2.64884">
        <ele>1044</ele>
        <time>2021-11-05T14:43:57Z</time>
      </trkpt>
      <trkpt lat="45.02865" lon="2.64888">
        <ele>1044.8</ele>
        <time>2021-11-05T14:44:39Z</time>
      </trkpt>
      <trkpt lat="45.02876" lon="2.64888">
        <ele>1046.4</ele>
        <time>2021-11-05T14:46:01Z</time>
      </trkpt>
      <trkpt lat="45.0288" lon="2.64891">
        <ele>1045.3</ele>
        <time>2021-11-05T14:46:38Z</time>
      </trkpt>
      <trkpt lat="45.02888" lon="2.64898">
        <ele>1047.1</ele>
        <time>2021-11-05T14:47:13Z</time>
      </trkpt>
      <trkpt lat="45.02892" lon="2.649">
        <ele>1050.4</ele>
        <time>2021-11-05T14:47:41Z</time>
      </trkpt>
      <trkpt lat="45.02896" lon="2.64903">
        <ele>1051.2</ele>
        <time>2021-11-05T14:47:53Z</time>
      </trkpt>
      <trkpt lat="45.029" lon="2.64907">
        <ele>1052.8</ele>
        <time>2021-11-05T14:48:11Z</time>
      </trkpt>
      <trkpt lat="45.02912" lon="2.64908">
        <ele>1053.5</ele>
        <time>2021-11-05T14:48:24Z</time>
      </trkpt>
      <trkpt lat="45.02916" lon="2.64906">
        <ele>1053.9</ele>
        <time>2021-11-05T14:48:36Z</time>
      </trkpt>
      <trkpt lat="45.02925" lon="2.64904">
        <ele>1052.6</ele>
        <time>2021-11-05T14:49:24Z</time>
      </trkpt>
      <trkpt lat="45.0293" lon="2.64904">
        <ele>1052.3</ele>
        <time>2021-11-05T14:49:39Z</time>
      </trkpt>
      <trkpt lat="45.02934" lon="2.64902">
        <ele>1052.1</ele>
        <time>2021-11-05T14:49:48Z</time>
      </trkpt>
      <trkpt lat="45.02944" lon="2.64901">
        <ele>1052.2</ele>
        <time>2021-11-05T14:49:57Z</time>
      </trkpt>
      <trkpt lat="45.02949" lon="2.64899">
        <ele>1052</ele>
        <time>2021-11-05T14:50:12Z</time>
      </trkpt>
      <trkpt lat="45.02953" lon="2.64901">
        <ele>1051.8</ele>
        <time>2021-11-05T14:50:19Z</time>
      </trkpt>
      <trkpt lat="45.02963" lon="2.6491">
        <ele>1051.4</ele>
        <time>2021-11-05T14:50:27Z</time>
      </trkpt>
      <trkpt lat="45.02967" lon="2.64914">
        <ele>1051.5</ele>
        <time>2021-11-05T14:50:30Z</time>
      </trkpt>
      <trkpt lat="45.02973" lon="2.64917">
        <ele>1052.3</ele>
        <time>2021-11-05T14:50:34Z</time>
      </trkpt>
      <trkpt lat="45.02982" lon="2.64927">
        <ele>1053.8</ele>
        <time>2021-11-05T14:50:41Z</time>
      </trkpt>
      <trkpt lat="45.02987" lon="2.64931">
        <ele>1054.4</ele>
        <time>2021-11-05T14:50:45Z</time>
      </trkpt>
      <trkpt lat="45.02991" lon="2.64933">
        <ele>1055.5</ele>
        <time>2021-11-05T14:50:49Z</time>
      </trkpt>
      <trkpt lat="45.02999" lon="2.64941">
        <ele>1057.9</ele>
        <time>2021-11-05T14:51:02Z</time>
      </trkpt>
      <trkpt lat="45.03003" lon="2.64946">
        <ele>1058.8</ele>
        <time>2021-11-05T14:51:08Z</time>
      </trkpt>
      <trkpt lat="45.03011" lon="2.64951">
        <ele>1060.4</ele>
        <time>2021-11-05T14:51:31Z</time>
      </trkpt>
      <trkpt lat="45.03015" lon="2.64954">
        <ele>1061.2</ele>
        <time>2021-11-05T14:51:45Z</time>
      </trkpt>
      <trkpt lat="45.03019" lon="2.64959">
        <ele>1061.4</ele>
        <time>2021-11-05T14:51:51Z</time>
      </trkpt>
      <trkpt lat="45.03024" lon="2.64964">
        <ele>1061.6</ele>
        <time>2021-11-05T14:51:56Z</time>
      </trkpt>
      <trkpt lat="45.03033" lon="2.64971">
        <ele>1062.1</ele>
        <time>2021-11-05T14:52:04Z</time>
      </trkpt>
      <trkpt lat="45.03038" lon="2.64974">
        <ele>1062.6</ele>
        <time>2021-11-05T14:52:14Z</time>
      </trkpt>
      <trkpt lat="45.03048" lon="2.6498">
        <ele>1063.4</ele>
        <time>2021-11-05T14:52:24Z</time>
      </trkpt>
      <trkpt lat="45.03053" lon="2.64981">
        <ele>1064</ele>
        <time>2021-11-05T14:52:31Z</time>
      </trkpt>
      <trkpt lat="45.03059" lon="2.64982">
        <ele>1064.3</ele>
        <time>2021-11-05T14:52:35Z</time>
      </trkpt>
      <trkpt lat="45.03066" lon="2.64986">
        <ele>1064.3</ele>
        <time>2021-11-05T14:52:39Z</time>
      </trkpt>
      <trkpt lat="45.03077" lon="2.64989">
        <ele>1064.7</ele>
        <time>2021-11-05T14:52:47Z</time>
      </trkpt>
      <trkpt lat="45.0308" lon="2.64985">
        <ele>1066.3</ele>
        <time>2021-11-05T14:52:56Z</time>
      </trkpt>
      <trkpt lat="45.03089" lon="2.64986">
        <ele>1068.5</ele>
        <time>2021-11-05T14:53:22Z</time>
      </trkpt>
      <trkpt lat="45.03094" lon="2.64984">
        <ele>1067.7</ele>
        <time>2021-11-05T14:54:43Z</time>
      </trkpt>
      <trkpt lat="45.03094" lon="2.64991">
        <ele>1067.8</ele>
        <time>2021-11-05T14:55:59Z</time>
      </trkpt>
      <trkpt lat="45.03098" lon="2.64993">
        <ele>1067.2</ele>
        <time>2021-11-05T14:56:16Z</time>
      </trkpt>
      <trkpt lat="45.03107" lon="2.64991">
        <ele>1064.9</ele>
        <time>2021-11-05T14:56:48Z</time>
      </trkpt>
      <trkpt lat="45.03116" lon="2.64993">
        <ele>1063.3</ele>
        <time>2021-11-05T14:57:00Z</time>
      </trkpt>
      <trkpt lat="45.03123" lon="2.64993">
        <ele>1063.1</ele>
        <time>2021-11-05T14:57:04Z</time>
      </trkpt>
      <trkpt lat="45.03127" lon="2.64993">
        <ele>1063.1</ele>
        <time>2021-11-05T14:57:07Z</time>
      </trkpt>
      <trkpt lat="45.03133" lon="2.64993">
        <ele>1063.1</ele>
        <time>2021-11-05T14:57:11Z</time>
      </trkpt>
      <trkpt lat="45.03164" lon="2.65019">
        <ele>1065.2</ele>
        <time>2021-11-05T14:57:19Z</time>
      </trkpt>
      <trkpt lat="45.03147" lon="2.65002">
        <ele>1060.2</ele>
        <time>2021-11-05T14:57:28Z</time>
      </trkpt>
      <trkpt lat="45.03145" lon="2.65">
        <ele>1059.6</ele>
      </trkpt>
      <trkpt lat="45.03147" lon="2.65004">
        <ele>1061</ele>
        <time>2021-11-05T14:57:33Z</time>
      </trkpt>
      <trkpt lat="45.03171" lon="2.65021">
        <ele>1064.8</ele>
      </trkpt>
      <trkpt lat="45.03154" lon="2.6501">
        <ele>1062.4</ele>
        <time>2021-11-05T14:57:38Z</time>
      </trkpt>
      <trkpt lat="45.03174" lon="2.65024">
        <ele>1065.5</ele>
        <time>2021-11-05T14:57:42Z</time>
      </trkpt>
      <trkpt lat="45.03165" lon="2.65017">
        <ele>1064.3</ele>
      </trkpt>
      <trkpt lat="45.03151" lon="2.65006">
        <ele>1061.1</ele>
      </trkpt>
      <trkpt lat="45.03168" lon="2.65019">
        <ele>1064.8</ele>
      </trkpt>
      <trkpt lat="45.03152" lon="2.65003">
        <ele>1060.2</ele>
        <time>2021-11-05T14:57:47Z</time>
      </trkpt>
      <trkpt lat="45.03163" lon="2.65015">
        <ele>1063.7</ele>
      </trkpt>
      <trkpt lat="45.03179" lon="2.65022">
        <ele>1064.1</ele>
      </trkpt>
      <trkpt lat="45.03179" lon="2.65028">
        <ele>1066.3</ele>
        <time>2021-11-05T14:57:52Z</time>
      </trkpt>
      <trkpt lat="45.03185" lon="2.65028">
        <ele>1065.4</ele>
        <time>2021-11-05T14:57:57Z</time>
      </trkpt>
      <trkpt lat="45.03208" lon="2.65043">
        <ele>1067.2</ele>
      </trkpt>
      <trkpt lat="45.03199" lon="2.65042">
        <ele>1067.6</ele>
      </trkpt>
      <trkpt lat="45.03207" lon="2.65045">
        <ele>1067.8</ele>
      </trkpt>
      <trkpt lat="45.03205" lon="2.6504">
        <ele>1066.6</ele>
      </trkpt>
      <trkpt lat="45.03202" lon="2.65044">
        <ele>1068</ele>
      </trkpt>
      <trkpt lat="45.03186" lon="2.65031">
        <ele>1066.2</ele>
        <time>2021-11-05T14:58:03Z</time>
      </trkpt>
      <trkpt lat="45.03181" lon="2.65031">
        <ele>1066.9</ele>
        <time>2021-11-05T14:58:11Z</time>
      </trkpt>
      <trkpt lat="45.0318" lon="2.6503">
        <ele>1066.7</ele>
      </trkpt>
      <trkpt lat="45.03204" lon="2.65044">
        <ele>1067.8</ele>
      </trkpt>
      <trkpt lat="45.03206" lon="2.65042">
        <ele>1067</ele>
      </trkpt>
      <trkpt lat="45.03221" lon="2.65045">
        <ele>1066.5</ele>
      </trkpt>
      <trkpt lat="45.03206" lon="2.65041">
        <ele>1066.7</ele>
      </trkpt>
      <trkpt lat="45.03214" lon="2.65055">
        <ele>1069.7</ele>
      </trkpt>
      <trkpt lat="45.03193" lon="2.65032">
        <ele>1065.6</ele>
      </trkpt>
      <trkpt lat="45.03199" lon="2.65037">
        <ele>1066.2</ele>
        <time>2021-11-05T14:58:16Z</time>
      </trkpt>
      <trkpt lat="45.03212" lon="2.65051">
        <ele>1068.8</ele>
      </trkpt>
      <trkpt lat="45.03208" lon="2.65042">
        <ele>1066.8</ele>
      </trkpt>
      <trkpt lat="45.0321" lon="2.65042">
        <ele>1066.7</ele>
        <time>2021-11-05T14:58:46Z</time>
      </trkpt>
      <trkpt lat="45.03224" lon="2.65054">
        <ele>1068.9</ele>
        <time>2021-11-05T14:58:52Z</time>
      </trkpt>
      <trkpt lat="45.03221" lon="2.6503">
        <ele>1062.7</ele>
      </trkpt>
      <trkpt lat="45.03221" lon="2.65032">
        <ele>1063.3</ele>
      </trkpt>
      <trkpt lat="45.03221" lon="2.65052">
        <ele>1068.1</ele>
      </trkpt>
      <trkpt lat="45.03218" lon="2.65026">
        <ele>1061.7</ele>
      </trkpt>
      <trkpt lat="45.03218" lon="2.65017">
        <ele>1058.9</ele>
      </trkpt>
      <trkpt lat="45.03215" lon="2.65013">
        <ele>1057.7</ele>
      </trkpt>
      <trkpt lat="45.03215" lon="2.65003">
        <ele>1054.6</ele>
      </trkpt>
      <trkpt lat="45.03211" lon="2.64981">
        <ele>1049.9</ele>
      </trkpt>
      <trkpt lat="45.03214" lon="2.64994">
        <ele>1052.4</ele>
      </trkpt>
      <trkpt lat="45.03214" lon="2.64964">
        <ele>1047.9</ele>
      </trkpt>
      <trkpt lat="45.0321" lon="2.64954">
        <ele>1051.6</ele>
        <time>2021-11-05T14:59:22Z</time>
      </trkpt>
      <trkpt lat="45.03214" lon="2.6499">
        <ele>1051.8</ele>
      </trkpt>
      <trkpt lat="45.03207" lon="2.64949">
        <ele>1050.2</ele>
        <time>2021-11-05T14:59:29Z</time>
      </trkpt>
      <trkpt lat="45.03217" lon="2.64945">
        <ele>1051.2</ele>
        <time>2021-11-05T14:59:47Z</time>
      </trkpt>
      <trkpt lat="45.03221" lon="2.64939">
        <ele>1051.8</ele>
        <time>2021-11-05T14:59:52Z</time>
      </trkpt>
      <trkpt lat="45.03222" lon="2.64926">
        <ele>1053.2</ele>
        <time>2021-11-05T15:00:04Z</time>
      </trkpt>
      <trkpt lat="45.03222" lon="2.64919">
        <ele>1052.9</ele>
        <time>2021-11-05T15:00:13Z</time>
      </trkpt>
      <trkpt lat="45.0322" lon="2.64913">
        <ele>1051.8</ele>
        <time>2021-11-05T15:00:31Z</time>
      </trkpt>
      <trkpt lat="45.03212" lon="2.649">
        <ele>1050.6</ele>
        <time>2021-11-05T15:00:39Z</time>
      </trkpt>
      <trkpt lat="45.03212" lon="2.64892">
        <ele>1049.8</ele>
        <time>2021-11-05T15:00:42Z</time>
      </trkpt>
      <trkpt lat="45.03212" lon="2.64884">
        <ele>1049.5</ele>
        <time>2021-11-05T15:00:46Z</time>
      </trkpt>
      <trkpt lat="45.0321" lon="2.64871">
        <ele>1048.4</ele>
        <time>2021-11-05T15:00:55Z</time>
      </trkpt>
      <trkpt lat="45.03211" lon="2.64864">
        <ele>1047.1</ele>
        <time>2021-11-05T15:01:00Z</time>
      </trkpt>
      <trkpt lat="45.03212" lon="2.64857">
        <ele>1045.9</ele>
        <time>2021-11-05T15:01:05Z</time>
      </trkpt>
      <trkpt lat="45.03212" lon="2.64844">
        <ele>1043.4</ele>
        <time>2021-11-05T15:01:27Z</time>
      </trkpt>
      <trkpt lat="45.03211" lon="2.64837">
        <ele>1042.4</ele>
        <time>2021-11-05T15:01:36Z</time>
      </trkpt>
      <trkpt lat="45.03212" lon="2.6483">
        <ele>1041.8</ele>
        <time>2021-11-05T15:01:43Z</time>
      </trkpt>
      <trkpt lat="45.03209" lon="2.64819">
        <ele>1039.6</ele>
        <time>2021-11-05T15:04:19Z</time>
      </trkpt>
      <trkpt lat="45.03213" lon="2.64822">
        <ele>1039.8</ele>
        <time>2021-11-05T15:05:17Z</time>
      </trkpt>
      <trkpt lat="45.03218" lon="2.6481">
        <ele>1039.8</ele>
        <time>2021-11-05T15:06:30Z</time>
      </trkpt>
      <trkpt lat="45.0322" lon="2.64804">
        <ele>1039.8</ele>
        <time>2021-11-05T15:06:46Z</time>
      </trkpt>
      <trkpt lat="45.0322" lon="2.64797">
        <ele>1039.2</ele>
        <time>2021-11-05T15:06:58Z</time>
      </trkpt>
      <trkpt lat="45.03221" lon="2.6479">
        <ele>1038.8</ele>
        <time>2021-11-05T15:07:03Z</time>
      </trkpt>
      <trkpt lat="45.03219" lon="2.64776">
        <ele>1033.2</ele>
        <time>2021-11-05T15:12:39Z</time>
      </trkpt>
      <trkpt lat="45.03215" lon="2.64773">
        <ele>1033.1</ele>
        <time>2021-11-05T15:12:47Z</time>
      </trkpt>
      <trkpt lat="45.03203" lon="2.64764">
        <ele>1033.6</ele>
        <time>2021-11-05T15:12:55Z</time>
      </trkpt>
      <trkpt lat="45.03201" lon="2.64758">
        <ele>1032.8</ele>
        <time>2021-11-05T15:13:00Z</time>
      </trkpt>
      <trkpt lat="45.03199" lon="2.64752">
        <ele>1031.3</ele>
        <time>2021-11-05T15:13:06Z</time>
      </trkpt>
      <trkpt lat="45.03195" lon="2.64747">
        <ele>1029.4</ele>
        <time>2021-11-05T15:13:12Z</time>
      </trkpt>
      <trkpt lat="45.03188" lon="2.64735">
        <ele>1026.8</ele>
        <time>2021-11-05T15:13:25Z</time>
      </trkpt>
      <trkpt lat="45.03181" lon="2.64726">
        <ele>1022.6</ele>
        <time>2021-11-05T15:13:43Z</time>
      </trkpt>
      <trkpt lat="45.03182" lon="2.64719">
        <ele>1022.3</ele>
        <time>2021-11-05T15:13:47Z</time>
      </trkpt>
      <trkpt lat="45.03181" lon="2.64713">
        <ele>1022.7</ele>
        <time>2021-11-05T15:13:55Z</time>
      </trkpt>
      <trkpt lat="45.03178" lon="2.64707">
        <ele>1022.9</ele>
        <time>2021-11-05T15:13:59Z</time>
      </trkpt>
      <trkpt lat="45.03176" lon="2.647">
        <ele>1023.3</ele>
        <time>2021-11-05T15:14:04Z</time>
      </trkpt>
      <trkpt lat="45.03172" lon="2.64687">
        <ele>1024.2</ele>
        <time>2021-11-05T15:14:11Z</time>
      </trkpt>
      <trkpt lat="45.03169" lon="2.64673">
        <ele>1023.9</ele>
        <time>2021-11-05T15:14:21Z</time>
      </trkpt>
      <trkpt lat="45.03169" lon="2.64666">
        <ele>1024.3</ele>
        <time>2021-11-05T15:14:27Z</time>
      </trkpt>
      <trkpt lat="45.03164" lon="2.64662">
        <ele>1024.6</ele>
        <time>2021-11-05T15:14:32Z</time>
      </trkpt>
      <trkpt lat="45.0316" lon="2.64658">
        <ele>1024.6</ele>
        <time>2021-11-05T15:14:35Z</time>
      </trkpt>
      <trkpt lat="45.03157" lon="2.64654">
        <ele>1024.5</ele>
        <time>2021-11-05T15:14:38Z</time>
      </trkpt>
      <trkpt lat="45.03145" lon="2.64638">
        <ele>1022.9</ele>
        <time>2021-11-05T15:14:53Z</time>
      </trkpt>
      <trkpt lat="45.03143" lon="2.64632">
        <ele>1022.3</ele>
        <time>2021-11-05T15:14:57Z</time>
      </trkpt>
      <trkpt lat="45.0314" lon="2.64625">
        <ele>1022.2</ele>
        <time>2021-11-05T15:15:01Z</time>
      </trkpt>
      <trkpt lat="45.03139" lon="2.64618">
        <ele>1021.9</ele>
        <time>2021-11-05T15:15:05Z</time>
      </trkpt>
      <trkpt lat="45.03137" lon="2.6461">
        <ele>1022</ele>
        <time>2021-11-05T15:15:09Z</time>
      </trkpt>
      <trkpt lat="45.03135" lon="2.646">
        <ele>1022.1</ele>
        <time>2021-11-05T15:15:13Z</time>
      </trkpt>
      <trkpt lat="45.03131" lon="2.64581">
        <ele>1023.1</ele>
        <time>2021-11-05T15:15:24Z</time>
      </trkpt>
      <trkpt lat="45.03129" lon="2.64574">
        <ele>1023.7</ele>
        <time>2021-11-05T15:15:29Z</time>
      </trkpt>
      <trkpt lat="45.03125" lon="2.64568">
        <ele>1024.5</ele>
        <time>2021-11-05T15:15:33Z</time>
      </trkpt>
      <trkpt lat="45.0312" lon="2.64564">
        <ele>1025.6</ele>
        <time>2021-11-05T15:15:38Z</time>
      </trkpt>
      <trkpt lat="45.03115" lon="2.64559">
        <ele>1026.4</ele>
        <time>2021-11-05T15:15:42Z</time>
      </trkpt>
      <trkpt lat="45.03111" lon="2.64555">
        <ele>1027.3</ele>
        <time>2021-11-05T15:15:45Z</time>
      </trkpt>
      <trkpt lat="45.03102" lon="2.64539">
        <ele>1027.8</ele>
        <time>2021-11-05T15:15:58Z</time>
      </trkpt>
      <trkpt lat="45.03098" lon="2.64533">
        <ele>1027.5</ele>
        <time>2021-11-05T15:16:03Z</time>
      </trkpt>
      <trkpt lat="45.03094" lon="2.64527">
        <ele>1027.1</ele>
        <time>2021-11-05T15:16:07Z</time>
      </trkpt>
      <trkpt lat="45.0309" lon="2.64523">
        <ele>1026.6</ele>
        <time>2021-11-05T15:16:12Z</time>
      </trkpt>
      <trkpt lat="45.03086" lon="2.64516">
        <ele>1026.6</ele>
        <time>2021-11-05T15:16:17Z</time>
      </trkpt>
      <trkpt lat="45.03083" lon="2.64511">
        <ele>1026.5</ele>
        <time>2021-11-05T15:16:21Z</time>
      </trkpt>
      <trkpt lat="45.0307" lon="2.645">
        <ele>1026.3</ele>
        <time>2021-11-05T15:16:34Z</time>
      </trkpt>
      <trkpt lat="45.03065" lon="2.64496">
        <ele>1026.8</ele>
        <time>2021-11-05T15:16:38Z</time>
      </trkpt>
      <trkpt lat="45.03062" lon="2.6449">
        <ele>1027.4</ele>
        <time>2021-11-05T15:16:42Z</time>
      </trkpt>
      <trkpt lat="45.03059" lon="2.64485">
        <ele>1026.2</ele>
        <time>2021-11-05T15:16:48Z</time>
      </trkpt>
      <trkpt lat="45.03055" lon="2.6448">
        <ele>1024.9</ele>
        <time>2021-11-05T15:16:53Z</time>
      </trkpt>
      <trkpt lat="45.03047" lon="2.6447">
        <ele>1022.1</ele>
        <time>2021-11-05T15:17:04Z</time>
      </trkpt>
      <trkpt lat="45.03039" lon="2.64463">
        <ele>1022.5</ele>
        <time>2021-11-05T15:17:11Z</time>
      </trkpt>
      <trkpt lat="45.03035" lon="2.6446">
        <ele>1022.9</ele>
        <time>2021-11-05T15:17:14Z</time>
      </trkpt>
      <trkpt lat="45.03031" lon="2.64455">
        <ele>1023.1</ele>
        <time>2021-11-05T15:17:18Z</time>
      </trkpt>
      <trkpt lat="45.03027" lon="2.64451">
        <ele>1023.3</ele>
        <time>2021-11-05T15:17:21Z</time>
      </trkpt>
      <trkpt lat="45.03022" lon="2.64447">
        <ele>1023.8</ele>
        <time>2021-11-05T15:17:25Z</time>
      </trkpt>
      <trkpt lat="45.03014" lon="2.64436">
        <ele>1025.2</ele>
        <time>2021-11-05T15:17:34Z</time>
      </trkpt>
      <trkpt lat="45.03006" lon="2.64427">
        <ele>1026.5</ele>
        <time>2021-11-05T15:17:42Z</time>
      </trkpt>
      <trkpt lat="45.03" lon="2.64423">
        <ele>1027.1</ele>
        <time>2021-11-05T15:17:48Z</time>
      </trkpt>
      <trkpt lat="45.02996" lon="2.64419">
        <ele>1027.5</ele>
        <time>2021-11-05T15:17:55Z</time>
      </trkpt>
      <trkpt lat="45.02992" lon="2.64415">
        <ele>1027.5</ele>
        <time>2021-11-05T15:17:59Z</time>
      </trkpt>
      <trkpt lat="45.02988" lon="2.64412">
        <ele>1027.5</ele>
        <time>2021-11-05T15:18:02Z</time>
      </trkpt>
      <trkpt lat="45.02979" lon="2.64406">
        <ele>1027.4</ele>
        <time>2021-11-05T15:18:22Z</time>
      </trkpt>
      <trkpt lat="45.02968" lon="2.64398">
        <ele>1026.7</ele>
        <time>2021-11-05T15:18:31Z</time>
      </trkpt>
      <trkpt lat="45.02962" lon="2.64393">
        <ele>1026.1</ele>
        <time>2021-11-05T15:18:35Z</time>
      </trkpt>
      <trkpt lat="45.02957" lon="2.64389">
        <ele>1025.7</ele>
        <time>2021-11-05T15:18:40Z</time>
      </trkpt>
      <trkpt lat="45.02954" lon="2.64385">
        <ele>1025.7</ele>
        <time>2021-11-05T15:18:43Z</time>
      </trkpt>
      <trkpt lat="45.02947" lon="2.64373">
        <ele>1025</ele>
        <time>2021-11-05T15:18:50Z</time>
      </trkpt>
      <trkpt lat="45.02942" lon="2.64367">
        <ele>1024.7</ele>
        <time>2021-11-05T15:18:55Z</time>
      </trkpt>
      <trkpt lat="45.02933" lon="2.64361">
        <ele>1024.9</ele>
        <time>2021-11-05T15:19:02Z</time>
      </trkpt>
      <trkpt lat="45.02928" lon="2.64356">
        <ele>1025.1</ele>
        <time>2021-11-05T15:19:06Z</time>
      </trkpt>
      <trkpt lat="45.02923" lon="2.64351">
        <ele>1025</ele>
        <time>2021-11-05T15:19:12Z</time>
      </trkpt>
      <trkpt lat="45.02919" lon="2.64347">
        <ele>1024.5</ele>
        <time>2021-11-05T15:19:16Z</time>
      </trkpt>
      <trkpt lat="45.0291" lon="2.64338">
        <ele>1024.4</ele>
        <time>2021-11-05T15:19:26Z</time>
      </trkpt>
      <trkpt lat="45.02905" lon="2.64336">
        <ele>1024</ele>
        <time>2021-11-05T15:19:33Z</time>
      </trkpt>
      <trkpt lat="45.02897" lon="2.64327">
        <ele>1022.5</ele>
        <time>2021-11-05T15:19:45Z</time>
      </trkpt>
      <trkpt lat="45.02893" lon="2.64323">
        <ele>1022.5</ele>
        <time>2021-11-05T15:19:49Z</time>
      </trkpt>
      <trkpt lat="45.02889" lon="2.64317">
        <ele>1022.7</ele>
        <time>2021-11-05T15:19:53Z</time>
      </trkpt>
      <trkpt lat="45.0288" lon="2.64311">
        <ele>1024.1</ele>
        <time>2021-11-05T15:20:00Z</time>
      </trkpt>
      <trkpt lat="45.02875" lon="2.64308">
        <ele>1025.5</ele>
        <time>2021-11-05T15:20:04Z</time>
      </trkpt>
      <trkpt lat="45.02872" lon="2.64302">
        <ele>1026.5</ele>
        <time>2021-11-05T15:20:08Z</time>
      </trkpt>
      <trkpt lat="45.02865" lon="2.64292">
        <ele>1025.9</ele>
        <time>2021-11-05T15:20:16Z</time>
      </trkpt>
      <trkpt lat="45.02862" lon="2.64287">
        <ele>1025.9</ele>
        <time>2021-11-05T15:20:21Z</time>
      </trkpt>
      <trkpt lat="45.02858" lon="2.64284">
        <ele>1025.9</ele>
        <time>2021-11-05T15:20:26Z</time>
      </trkpt>
      <trkpt lat="45.02849" lon="2.64276">
        <ele>1025.3</ele>
        <time>2021-11-05T15:20:36Z</time>
      </trkpt>
      <trkpt lat="45.02845" lon="2.6427">
        <ele>1025.1</ele>
        <time>2021-11-05T15:20:42Z</time>
      </trkpt>
      <trkpt lat="45.02841" lon="2.64265">
        <ele>1025.1</ele>
        <time>2021-11-05T15:20:47Z</time>
      </trkpt>
      <trkpt lat="45.02834" lon="2.64253">
        <ele>1025.1</ele>
        <time>2021-11-05T15:20:57Z</time>
      </trkpt>
      <trkpt lat="45.02831" lon="2.64247">
        <ele>1025.2</ele>
        <time>2021-11-05T15:21:02Z</time>
      </trkpt>
      <trkpt lat="45.02825" lon="2.64234">
        <ele>1024.4</ele>
        <time>2021-11-05T15:21:12Z</time>
      </trkpt>
      <trkpt lat="45.0282" lon="2.6423">
        <ele>1023.7</ele>
        <time>2021-11-05T15:21:17Z</time>
      </trkpt>
      <trkpt lat="45.02817" lon="2.64225">
        <ele>1023.1</ele>
        <time>2021-11-05T15:21:22Z</time>
      </trkpt>
      <trkpt lat="45.02813" lon="2.6422">
        <ele>1022.5</ele>
        <time>2021-11-05T15:21:27Z</time>
      </trkpt>
      <trkpt lat="45.02804" lon="2.64211">
        <ele>1022.1</ele>
        <time>2021-11-05T15:21:35Z</time>
      </trkpt>
      <trkpt lat="45.028" lon="2.64207">
        <ele>1022.2</ele>
        <time>2021-11-05T15:21:40Z</time>
      </trkpt>
      <trkpt lat="45.02791" lon="2.64197">
        <ele>1021.8</ele>
        <time>2021-11-05T15:21:50Z</time>
      </trkpt>
      <trkpt lat="45.02788" lon="2.64192">
        <ele>1021.8</ele>
        <time>2021-11-05T15:21:55Z</time>
      </trkpt>
      <trkpt lat="45.02785" lon="2.64187">
        <ele>1021.7</ele>
        <time>2021-11-05T15:21:59Z</time>
      </trkpt>
      <trkpt lat="45.02782" lon="2.64181">
        <ele>1022</ele>
        <time>2021-11-05T15:22:02Z</time>
      </trkpt>
      <trkpt lat="45.02776" lon="2.64168">
        <ele>1022.9</ele>
        <time>2021-11-05T15:22:11Z</time>
      </trkpt>
      <trkpt lat="45.0277" lon="2.64157">
        <ele>1022.5</ele>
        <time>2021-11-05T15:22:19Z</time>
      </trkpt>
      <trkpt lat="45.02767" lon="2.64152">
        <ele>1022.6</ele>
        <time>2021-11-05T15:22:23Z</time>
      </trkpt>
      <trkpt lat="45.02764" lon="2.64146">
        <ele>1022.9</ele>
        <time>2021-11-05T15:22:27Z</time>
      </trkpt>
      <trkpt lat="45.02761" lon="2.64139">
        <ele>1022.8</ele>
        <time>2021-11-05T15:22:32Z</time>
      </trkpt>
      <trkpt lat="45.02758" lon="2.64133">
        <ele>1022</ele>
        <time>2021-11-05T15:22:37Z</time>
      </trkpt>
      <trkpt lat="45.02751" lon="2.64122">
        <ele>1020.1</ele>
        <time>2021-11-05T15:22:46Z</time>
      </trkpt>
      <trkpt lat="45.02742" lon="2.64112">
        <ele>1019.6</ele>
        <time>2021-11-05T15:22:54Z</time>
      </trkpt>
      <trkpt lat="45.02739" lon="2.64107">
        <ele>1019.6</ele>
        <time>2021-11-05T15:22:57Z</time>
      </trkpt>
      <trkpt lat="45.02734" lon="2.64102">
        <ele>1019.7</ele>
        <time>2021-11-05T15:23:02Z</time>
      </trkpt>
      <trkpt lat="45.0273" lon="2.64098">
        <ele>1020</ele>
        <time>2021-11-05T15:23:06Z</time>
      </trkpt>
      <trkpt lat="45.02726" lon="2.64095">
        <ele>1020</ele>
        <time>2021-11-05T15:23:10Z</time>
      </trkpt>
      <trkpt lat="45.02711" lon="2.64085">
        <ele>1018.6</ele>
        <time>2021-11-05T15:23:22Z</time>
      </trkpt>
      <trkpt lat="45.02706" lon="2.64079">
        <ele>1018.3</ele>
        <time>2021-11-05T15:23:27Z</time>
      </trkpt>
      <trkpt lat="45.02702" lon="2.64073">
        <ele>1018.2</ele>
        <time>2021-11-05T15:23:32Z</time>
      </trkpt>
      <trkpt lat="45.02698" lon="2.64068">
        <ele>1017.7</ele>
        <time>2021-11-05T15:23:37Z</time>
      </trkpt>
      <trkpt lat="45.02693" lon="2.64064">
        <ele>1017.3</ele>
        <time>2021-11-05T15:23:43Z</time>
      </trkpt>
      <trkpt lat="45.02688" lon="2.64059">
        <ele>1017.2</ele>
        <time>2021-11-05T15:23:47Z</time>
      </trkpt>
      <trkpt lat="45.02676" lon="2.64042">
        <ele>1019.3</ele>
        <time>2021-11-05T15:23:58Z</time>
      </trkpt>
      <trkpt lat="45.02671" lon="2.64037">
        <ele>1018.2</ele>
        <time>2021-11-05T15:24:02Z</time>
      </trkpt>
      <trkpt lat="45.02665" lon="2.64033">
        <ele>1016.8</ele>
        <time>2021-11-05T15:24:08Z</time>
      </trkpt>
      <trkpt lat="45.02658" lon="2.64032">
        <ele>1015.9</ele>
        <time>2021-11-05T15:24:13Z</time>
      </trkpt>
      <trkpt lat="45.02653" lon="2.64032">
        <ele>1015.1</ele>
        <time>2021-11-05T15:24:17Z</time>
      </trkpt>
      <trkpt lat="45.02648" lon="2.64033">
        <ele>1014.2</ele>
        <time>2021-11-05T15:24:21Z</time>
      </trkpt>
      <trkpt lat="45.02633" lon="2.64024">
        <ele>1011.5</ele>
        <time>2021-11-05T15:24:33Z</time>
      </trkpt>
      <trkpt lat="45.02628" lon="2.64022">
        <ele>1011.2</ele>
        <time>2021-11-05T15:24:36Z</time>
      </trkpt>
      <trkpt lat="45.02623" lon="2.64021">
        <ele>1010.8</ele>
        <time>2021-11-05T15:24:40Z</time>
      </trkpt>
      <trkpt lat="45.02618" lon="2.6402">
        <ele>1010.8</ele>
        <time>2021-11-05T15:24:43Z</time>
      </trkpt>
      <trkpt lat="45.02612" lon="2.64019">
        <ele>1010.4</ele>
        <time>2021-11-05T15:24:46Z</time>
      </trkpt>
      <trkpt lat="45.02606" lon="2.64017">
        <ele>1010</ele>
        <time>2021-11-05T15:24:50Z</time>
      </trkpt>
      <trkpt lat="45.02591" lon="2.64009">
        <ele>1008.1</ele>
        <time>2021-11-05T15:25:02Z</time>
      </trkpt>
      <trkpt lat="45.02585" lon="2.64008">
        <ele>1007.3</ele>
        <time>2021-11-05T15:25:06Z</time>
      </trkpt>
      <trkpt lat="45.02579" lon="2.64007">
        <ele>1006.6</ele>
        <time>2021-11-05T15:25:11Z</time>
      </trkpt>
      <trkpt lat="45.02574" lon="2.64005">
        <ele>1006</ele>
        <time>2021-11-05T15:25:16Z</time>
      </trkpt>
      <trkpt lat="45.02569" lon="2.64004">
        <ele>1005.5</ele>
        <time>2021-11-05T15:25:19Z</time>
      </trkpt>
      <trkpt lat="45.02556" lon="2.64001">
        <ele>1004.7</ele>
        <time>2021-11-05T15:25:28Z</time>
      </trkpt>
      <trkpt lat="45.02544" lon="2.63993">
        <ele>1003.8</ele>
        <time>2021-11-05T15:25:37Z</time>
      </trkpt>
      <trkpt lat="45.02539" lon="2.63989">
        <ele>1003.5</ele>
        <time>2021-11-05T15:25:41Z</time>
      </trkpt>
      <trkpt lat="45.02535" lon="2.63987">
        <ele>1003.1</ele>
        <time>2021-11-05T15:25:45Z</time>
      </trkpt>
      <trkpt lat="45.0253" lon="2.63984">
        <ele>1002.6</ele>
        <time>2021-11-05T15:25:48Z</time>
      </trkpt>
      <trkpt lat="45.02525" lon="2.63981">
        <ele>1001.4</ele>
        <time>2021-11-05T15:25:52Z</time>
      </trkpt>
      <trkpt lat="45.0251" lon="2.63974">
        <ele>1000.7</ele>
        <time>2021-11-05T15:26:02Z</time>
      </trkpt>
      <trkpt lat="45.02506" lon="2.6397">
        <ele>1000.9</ele>
        <time>2021-11-05T15:26:06Z</time>
      </trkpt>
      <trkpt lat="45.025" lon="2.63968">
        <ele>1000.8</ele>
        <time>2021-11-05T15:26:09Z</time>
      </trkpt>
      <trkpt lat="45.02494" lon="2.63966">
        <ele>1000.2</ele>
        <time>2021-11-05T15:26:13Z</time>
      </trkpt>
      <trkpt lat="45.02489" lon="2.63965">
        <ele>999.1</ele>
        <time>2021-11-05T15:26:17Z</time>
      </trkpt>
      <trkpt lat="45.02479" lon="2.6396">
        <ele>997.5</ele>
        <time>2021-11-05T15:26:27Z</time>
      </trkpt>
      <trkpt lat="45.02468" lon="2.63959">
        <ele>996.9</ele>
        <time>2021-11-05T15:26:33Z</time>
      </trkpt>
      <trkpt lat="45.02461" lon="2.63958">
        <ele>996.2</ele>
        <time>2021-11-05T15:26:38Z</time>
      </trkpt>
      <trkpt lat="45.02456" lon="2.63958">
        <ele>995.4</ele>
        <time>2021-11-05T15:26:42Z</time>
      </trkpt>
      <trkpt lat="45.0245" lon="2.63956">
        <ele>994.6</ele>
        <time>2021-11-05T15:26:46Z</time>
      </trkpt>
      <trkpt lat="45.02445" lon="2.63953">
        <ele>993.8</ele>
        <time>2021-11-05T15:26:50Z</time>
      </trkpt>
      <trkpt lat="45.02436" lon="2.63948">
        <ele>993.3</ele>
        <time>2021-11-05T15:26:57Z</time>
      </trkpt>
      <trkpt lat="45.02426" lon="2.63942">
        <ele>992.4</ele>
        <time>2021-11-05T15:27:06Z</time>
      </trkpt>
      <trkpt lat="45.0242" lon="2.63943">
        <ele>992.1</ele>
        <time>2021-11-05T15:27:11Z</time>
      </trkpt>
      <trkpt lat="45.02415" lon="2.63944">
        <ele>991.7</ele>
        <time>2021-11-05T15:27:15Z</time>
      </trkpt>
      <trkpt lat="45.0241" lon="2.63941">
        <ele>991.7</ele>
        <time>2021-11-05T15:27:18Z</time>
      </trkpt>
      <trkpt lat="45.02399" lon="2.63939">
        <ele>991.8</ele>
        <time>2021-11-05T15:27:25Z</time>
      </trkpt>
      <trkpt lat="45.02392" lon="2.63938">
        <ele>991.9</ele>
        <time>2021-11-05T15:27:29Z</time>
      </trkpt>
      <trkpt lat="45.02382" lon="2.63932">
        <ele>990.2</ele>
        <time>2021-11-05T15:27:39Z</time>
      </trkpt>
      <trkpt lat="45.02376" lon="2.63931">
        <ele>989.9</ele>
        <time>2021-11-05T15:27:42Z</time>
      </trkpt>
      <trkpt lat="45.0237" lon="2.6393">
        <ele>989.5</ele>
        <time>2021-11-05T15:27:46Z</time>
      </trkpt>
      <trkpt lat="45.02365" lon="2.63924">
        <ele>989</ele>
        <time>2021-11-05T15:27:51Z</time>
      </trkpt>
      <trkpt lat="45.02357" lon="2.63915">
        <ele>987.5</ele>
        <time>2021-11-05T15:27:58Z</time>
      </trkpt>
      <trkpt lat="45.0235" lon="2.63913">
        <ele>986.5</ele>
        <time>2021-11-05T15:28:04Z</time>
      </trkpt>
      <trkpt lat="45.0234" lon="2.63909">
        <ele>985</ele>
        <time>2021-11-05T15:28:13Z</time>
      </trkpt>
      <trkpt lat="45.02334" lon="2.63905">
        <ele>984.2</ele>
        <time>2021-11-05T15:28:18Z</time>
      </trkpt>
      <trkpt lat="45.02329" lon="2.63905">
        <ele>983.8</ele>
        <time>2021-11-05T15:28:22Z</time>
      </trkpt>
      <trkpt lat="45.02318" lon="2.63902">
        <ele>982.9</ele>
        <time>2021-11-05T15:28:29Z</time>
      </trkpt>
      <trkpt lat="45.02314" lon="2.63899">
        <ele>981.9</ele>
        <time>2021-11-05T15:28:33Z</time>
      </trkpt>
      <trkpt lat="45.02309" lon="2.63897">
        <ele>981.4</ele>
        <time>2021-11-05T15:28:36Z</time>
      </trkpt>
      <trkpt lat="45.02298" lon="2.6389">
        <ele>981.8</ele>
        <time>2021-11-05T15:28:43Z</time>
      </trkpt>
      <trkpt lat="45.02293" lon="2.63886">
        <ele>982.5</ele>
        <time>2021-11-05T15:28:46Z</time>
      </trkpt>
      <trkpt lat="45.0229" lon="2.63881">
        <ele>982.7</ele>
        <time>2021-11-05T15:28:49Z</time>
      </trkpt>
      <trkpt lat="45.02281" lon="2.63874">
        <ele>981.6</ele>
        <time>2021-11-05T15:28:55Z</time>
      </trkpt>
      <trkpt lat="45.02276" lon="2.63871">
        <ele>980.8</ele>
        <time>2021-11-05T15:28:59Z</time>
      </trkpt>
      <trkpt lat="45.0227" lon="2.63868">
        <ele>980.9</ele>
        <time>2021-11-05T15:29:04Z</time>
      </trkpt>
      <trkpt lat="45.02259" lon="2.63865">
        <ele>981.4</ele>
        <time>2021-11-05T15:29:11Z</time>
      </trkpt>
      <trkpt lat="45.02254" lon="2.63864">
        <ele>981.5</ele>
        <time>2021-11-05T15:29:14Z</time>
      </trkpt>
      <trkpt lat="45.02249" lon="2.63862">
        <ele>980.9</ele>
        <time>2021-11-05T15:29:18Z</time>
      </trkpt>
      <trkpt lat="45.02239" lon="2.63857">
        <ele>979.2</ele>
        <time>2021-11-05T15:29:26Z</time>
      </trkpt>
      <trkpt lat="45.02234" lon="2.63855">
        <ele>978.2</ele>
        <time>2021-11-05T15:29:30Z</time>
      </trkpt>
      <trkpt lat="45.02229" lon="2.63854">
        <ele>977.3</ele>
        <time>2021-11-05T15:29:33Z</time>
      </trkpt>
      <trkpt lat="45.0222" lon="2.63848">
        <ele>975.1</ele>
        <time>2021-11-05T15:29:41Z</time>
      </trkpt>
      <trkpt lat="45.02214" lon="2.63846">
        <ele>974.3</ele>
        <time>2021-11-05T15:29:45Z</time>
      </trkpt>
      <trkpt lat="45.02204" lon="2.63845">
        <ele>973.8</ele>
        <time>2021-11-05T15:29:52Z</time>
      </trkpt>
      <trkpt lat="45.02199" lon="2.63843">
        <ele>973.6</ele>
        <time>2021-11-05T15:29:55Z</time>
      </trkpt>
      <trkpt lat="45.02194" lon="2.6384">
        <ele>972.9</ele>
        <time>2021-11-05T15:30:00Z</time>
      </trkpt>
      <trkpt lat="45.02189" lon="2.63838">
        <ele>972.1</ele>
        <time>2021-11-05T15:30:04Z</time>
      </trkpt>
      <trkpt lat="45.02178" lon="2.63837">
        <ele>970.5</ele>
        <time>2021-11-05T15:30:11Z</time>
      </trkpt>
      <trkpt lat="45.02171" lon="2.63835">
        <ele>970</ele>
        <time>2021-11-05T15:30:15Z</time>
      </trkpt>
      <trkpt lat="45.02159" lon="2.63832">
        <ele>969.3</ele>
        <time>2021-11-05T15:30:23Z</time>
      </trkpt>
      <trkpt lat="45.02155" lon="2.6383">
        <ele>969.1</ele>
        <time>2021-11-05T15:30:26Z</time>
      </trkpt>
      <trkpt lat="45.02143" lon="2.63818">
        <ele>973.8</ele>
        <time>2021-11-05T15:30:30Z</time>
      </trkpt>
      <trkpt lat="45.02142" lon="2.63817">
        <ele>974</ele>
        <time>2021-11-05T15:30:34Z</time>
      </trkpt>
      <trkpt lat="45.02136" lon="2.63818">
        <ele>972.7</ele>
      </trkpt>
      <trkpt lat="45.02132" lon="2.63822">
        <ele>970.2</ele>
        <time>2021-11-05T15:30:41Z</time>
      </trkpt>
      <trkpt lat="45.02129" lon="2.6382">
        <ele>970.5</ele>
      </trkpt>
      <trkpt lat="45.02126" lon="2.63817">
        <ele>971.1</ele>
      </trkpt>
      <trkpt lat="45.02125" lon="2.63825">
        <ele>968.4</ele>
        <time>2021-11-05T15:30:46Z</time>
      </trkpt>
      <trkpt lat="45.02123" lon="2.63819">
        <ele>969.8</ele>
      </trkpt>
      <trkpt lat="45.02119" lon="2.63817">
        <ele>969.8</ele>
      </trkpt>
      <trkpt lat="45.02115" lon="2.63819">
        <ele>968.4</ele>
        <time>2021-11-05T15:30:52Z</time>
      </trkpt>
      <trkpt lat="45.0211" lon="2.63812">
        <ele>969.7</ele>
      </trkpt>
      <trkpt lat="45.02109" lon="2.63811">
        <ele>969.8</ele>
        <time>2021-11-05T15:30:57Z</time>
      </trkpt>
      <trkpt lat="45.02106" lon="2.63801">
        <ele>974</ele>
      </trkpt>
      <trkpt lat="45.02098" lon="2.63806">
        <ele>970</ele>
        <time>2021-11-05T15:31:02Z</time>
      </trkpt>
      <trkpt lat="45.02091" lon="2.63802">
        <ele>971.1</ele>
      </trkpt>
      <trkpt lat="45.02095" lon="2.63807">
        <ele>969.1</ele>
      </trkpt>
      <trkpt lat="45.02088" lon="2.63801">
        <ele>971</ele>
        <time>2021-11-05T15:31:10Z</time>
      </trkpt>
      <trkpt lat="45.02083" lon="2.6379">
        <ele>975.3</ele>
      </trkpt>
      <trkpt lat="45.02087" lon="2.63804">
        <ele>969.3</ele>
        <time>2021-11-05T15:31:14Z</time>
      </trkpt>
      <trkpt lat="45.02085" lon="2.63792">
        <ele>974.6</ele>
      </trkpt>
      <trkpt lat="45.02082" lon="2.638">
        <ele>970.6</ele>
        <time>2021-11-05T15:31:18Z</time>
      </trkpt>
      <trkpt lat="45.02069" lon="2.6379">
        <ele>972.3</ele>
        <time>2021-11-05T15:31:22Z</time>
      </trkpt>
      <trkpt lat="45.02066" lon="2.63788">
        <ele>972.7</ele>
      </trkpt>
      <trkpt lat="45.02064" lon="2.63786">
        <ele>973.2</ele>
        <time>2021-11-05T15:31:30Z</time>
      </trkpt>
      <trkpt lat="45.02063" lon="2.63784">
        <ele>973.9</ele>
      </trkpt>
      <trkpt lat="45.02051" lon="2.63781">
        <ele>972.3</ele>
      </trkpt>
      <trkpt lat="45.0206" lon="2.63788">
        <ele>971.4</ele>
      </trkpt>
      <trkpt lat="45.02052" lon="2.63776">
        <ele>975</ele>
      </trkpt>
      <trkpt lat="45.0206" lon="2.6379">
        <ele>970.2</ele>
        <time>2021-11-05T15:31:34Z</time>
      </trkpt>
      <trkpt lat="45.02032" lon="2.63764">
        <ele>975.6</ele>
        <time>2021-11-05T15:31:40Z</time>
      </trkpt>
      <trkpt lat="45.0203" lon="2.63768">
        <ele>973.3</ele>
      </trkpt>
      <trkpt lat="45.02026" lon="2.63762">
        <ele>975.1</ele>
      </trkpt>
      <trkpt lat="45.02022" lon="2.63762">
        <ele>974.5</ele>
      </trkpt>
      <trkpt lat="45.02023" lon="2.63759">
        <ele>976.1</ele>
        <time>2021-11-05T15:31:44Z</time>
      </trkpt>
      <trkpt lat="45.02018" lon="2.63758">
        <ele>975.3</ele>
      </trkpt>
      <trkpt lat="45.02013" lon="2.63753">
        <ele>976.5</ele>
        <time>2021-11-05T15:31:47Z</time>
      </trkpt>
      <trkpt lat="45.02002" lon="2.63745">
        <ele>978</ele>
        <time>2021-11-05T15:31:55Z</time>
      </trkpt>
      <trkpt lat="45.01998" lon="2.63743">
        <ele>978.4</ele>
        <time>2021-11-05T15:31:59Z</time>
      </trkpt>
      <trkpt lat="45.01991" lon="2.63743">
        <ele>977.4</ele>
      </trkpt>
      <trkpt lat="45.01987" lon="2.63737">
        <ele>979.3</ele>
        <time>2021-11-05T15:32:02Z</time>
      </trkpt>
      <trkpt lat="45.01982" lon="2.63737">
        <ele>978.5</ele>
      </trkpt>
      <trkpt lat="45.01979" lon="2.63739">
        <ele>977.4</ele>
      </trkpt>
      <trkpt lat="45.01972" lon="2.63735">
        <ele>977.9</ele>
        <time>2021-11-05T15:32:10Z</time>
      </trkpt>
      <trkpt lat="45.01959" lon="2.63736">
        <ele>977.2</ele>
        <time>2021-11-05T15:32:18Z</time>
      </trkpt>
      <trkpt lat="45.01956" lon="2.6374">
        <ele>975.6</ele>
        <time>2021-11-05T15:32:22Z</time>
      </trkpt>
      <trkpt lat="45.01949" lon="2.6374">
        <ele>975.3</ele>
        <time>2021-11-05T15:32:26Z</time>
      </trkpt>
      <trkpt lat="45.01941" lon="2.63742">
        <ele>974.8</ele>
        <time>2021-11-05T15:32:30Z</time>
      </trkpt>
      <trkpt lat="45.01932" lon="2.63741">
        <ele>976.4</ele>
        <time>2021-11-05T15:32:35Z</time>
      </trkpt>
      <trkpt lat="45.01906" lon="2.63746">
        <ele>974.4</ele>
        <time>2021-11-05T15:32:39Z</time>
      </trkpt>
      <trkpt lat="45.01896" lon="2.63747">
        <ele>972.4</ele>
        <time>2021-11-05T15:32:47Z</time>
      </trkpt>
      <trkpt lat="45.01905" lon="2.63749">
        <ele>972.7</ele>
        <time>2021-11-05T15:32:51Z</time>
      </trkpt>
      <trkpt lat="45.01892" lon="2.63746">
        <ele>972.2</ele>
        <time>2021-11-05T15:32:54Z</time>
      </trkpt>
      <trkpt lat="45.0189" lon="2.63746">
        <ele>971.9</ele>
        <time>2021-11-05T15:32:58Z</time>
      </trkpt>
      <trkpt lat="45.01883" lon="2.63745">
        <ele>971.4</ele>
        <time>2021-11-05T15:33:04Z</time>
      </trkpt>
      <trkpt lat="45.01874" lon="2.63745">
        <ele>970</ele>
        <time>2021-11-05T15:33:08Z</time>
      </trkpt>
      <trkpt lat="45.01872" lon="2.63743">
        <ele>970.3</ele>
        <time>2021-11-05T15:33:16Z</time>
      </trkpt>
      <trkpt lat="45.01862" lon="2.63741">
        <ele>969.7</ele>
      </trkpt>
      <trkpt lat="45.01867" lon="2.63745">
        <ele>969</ele>
        <time>2021-11-05T15:33:20Z</time>
      </trkpt>
      <trkpt lat="45.01863" lon="2.63744">
        <ele>968.8</ele>
      </trkpt>
      <trkpt lat="45.01862" lon="2.63742">
        <ele>969.2</ele>
        <time>2021-11-05T15:33:24Z</time>
      </trkpt>
      <trkpt lat="45.01855" lon="2.63745">
        <ele>968.1</ele>
      </trkpt>
      <trkpt lat="45.01847" lon="2.6375">
        <ele>966.1</ele>
        <time>2021-11-05T15:33:32Z</time>
      </trkpt>
      <trkpt lat="45.01842" lon="2.63752">
        <ele>965.3</ele>
      </trkpt>
      <trkpt lat="45.01831" lon="2.6376">
        <ele>963.6</ele>
      </trkpt>
      <trkpt lat="45.01845" lon="2.63751">
        <ele>965.8</ele>
      </trkpt>
      <trkpt lat="45.01834" lon="2.63755">
        <ele>964.6</ele>
      </trkpt>
      <trkpt lat="45.01832" lon="2.63758">
        <ele>963.8</ele>
        <time>2021-11-05T15:33:37Z</time>
      </trkpt>
      <trkpt lat="45.01832" lon="2.63761">
        <ele>963.1</ele>
        <time>2021-11-05T15:33:40Z</time>
      </trkpt>
      <trkpt lat="45.01829" lon="2.63763">
        <ele>962.9</ele>
        <time>2021-11-05T15:33:44Z</time>
      </trkpt>
      <trkpt lat="45.01822" lon="2.63768">
        <ele>962.5</ele>
        <time>2021-11-05T15:33:51Z</time>
      </trkpt>
      <trkpt lat="45.01827" lon="2.63765">
        <ele>962.8</ele>
      </trkpt>
      <trkpt lat="45.01835" lon="2.6376">
        <ele>963</ele>
        <time>2021-11-05T15:33:55Z</time>
      </trkpt>
      <trkpt lat="45.0183" lon="2.63762">
        <ele>963.3</ele>
      </trkpt>
      <trkpt lat="45.01827" lon="2.63765">
        <ele>962.8</ele>
      </trkpt>
      <trkpt lat="45.01821" lon="2.6377">
        <ele>962.3</ele>
        <time>2021-11-05T15:34:02Z</time>
      </trkpt>
      <trkpt lat="45.01818" lon="2.63775">
        <ele>961.1</ele>
        <time>2021-11-05T15:34:05Z</time>
      </trkpt>
      <trkpt lat="45.01817" lon="2.63778">
        <ele>960.4</ele>
      </trkpt>
      <trkpt lat="45.01823" lon="2.63778">
        <ele>959.6</ele>
      </trkpt>
      <trkpt lat="45.01826" lon="2.63785">
        <ele>957.7</ele>
        <time>2021-11-05T15:34:13Z</time>
      </trkpt>
      <trkpt lat="45.01831" lon="2.63788">
        <ele>956.4</ele>
      </trkpt>
      <trkpt lat="45.01837" lon="2.63796">
        <ele>954.5</ele>
      </trkpt>
      <trkpt lat="45.01833" lon="2.63791">
        <ele>955.6</ele>
      </trkpt>
      <trkpt lat="45.01841" lon="2.63796">
        <ele>954.1</ele>
      </trkpt>
      <trkpt lat="45.01842" lon="2.63807">
        <ele>951.8</ele>
      </trkpt>
      <trkpt lat="45.01839" lon="2.63812">
        <ele>950.8</ele>
      </trkpt>
      <trkpt lat="45.01824" lon="2.63822">
        <ele>949.5</ele>
      </trkpt>
      <trkpt lat="45.01827" lon="2.63827">
        <ele>947.9</ele>
        <time>2021-11-05T15:34:23Z</time>
      </trkpt>
      <trkpt lat="45.01855" lon="2.63838">
        <ele>944.4</ele>
      </trkpt>
      <trkpt lat="45.01854" lon="2.6384">
        <ele>944</ele>
        <time>2021-11-05T15:34:27Z</time>
      </trkpt>
      <trkpt lat="45.0184" lon="2.63833">
        <ele>945.7</ele>
        <time>2021-11-05T15:34:32Z</time>
      </trkpt>
      <trkpt lat="45.01862" lon="2.63841">
        <ele>943.5</ele>
        <time>2021-11-05T15:34:37Z</time>
      </trkpt>
      <trkpt lat="45.01869" lon="2.63839">
        <ele>943.9</ele>
      </trkpt>
      <trkpt lat="45.01853" lon="2.63846">
        <ele>943.1</ele>
      </trkpt>
      <trkpt lat="45.01857" lon="2.63848">
        <ele>942.5</ele>
      </trkpt>
      <trkpt lat="45.01869" lon="2.63858">
        <ele>940.7</ele>
        <time>2021-11-05T15:34:42Z</time>
      </trkpt>
      <trkpt lat="45.01881" lon="2.6386">
        <ele>940.3</ele>
      </trkpt>
      <trkpt lat="45.01893" lon="2.63862">
        <ele>939.8</ele>
        <time>2021-11-05T15:34:46Z</time>
      </trkpt>
      <trkpt lat="45.01909" lon="2.63862">
        <ele>939.2</ele>
        <time>2021-11-05T15:34:50Z</time>
      </trkpt>
      <trkpt lat="45.01916" lon="2.63863">
        <ele>939.3</ele>
        <time>2021-11-05T15:34:53Z</time>
      </trkpt>
      <trkpt lat="45.01926" lon="2.63863">
        <ele>939.2</ele>
        <time>2021-11-05T15:35:01Z</time>
      </trkpt>
      <trkpt lat="45.01924" lon="2.63859">
        <ele>936.9</ele>
        <time>2021-11-05T15:38:44Z</time>
      </trkpt>
      <trkpt lat="45.01928" lon="2.63864">
        <ele>935.6</ele>
        <time>2021-11-05T15:39:02Z</time>
      </trkpt>
      <trkpt lat="45.01932" lon="2.63868">
        <ele>935.3</ele>
        <time>2021-11-05T15:39:06Z</time>
      </trkpt>
      <trkpt lat="45.01937" lon="2.63871">
        <ele>934.8</ele>
        <time>2021-11-05T15:39:18Z</time>
      </trkpt>
      <trkpt lat="45.01939" lon="2.63877">
        <ele>933.8</ele>
        <time>2021-11-05T15:39:48Z</time>
      </trkpt>
      <trkpt lat="45.01944" lon="2.63888">
        <ele>933.8</ele>
        <time>2021-11-05T15:40:48Z</time>
      </trkpt>
      <trkpt lat="45.01951" lon="2.63892">
        <ele>931.6</ele>
        <time>2021-11-05T15:41:38Z</time>
      </trkpt>
      <trkpt lat="45.01949" lon="2.63898">
        <ele>931.3</ele>
        <time>2021-11-05T15:42:16Z</time>
      </trkpt>
      <trkpt lat="45.01955" lon="2.63899">
        <ele>932.1</ele>
        <time>2021-11-05T15:50:23Z</time>
      </trkpt>
      <trkpt lat="45.01958" lon="2.63905">
        <ele>931.8</ele>
        <time>2021-11-05T15:50:26Z</time>
      </trkpt>
      <trkpt lat="45.01954" lon="2.63911">
        <ele>930.5</ele>
        <time>2021-11-05T15:50:35Z</time>
      </trkpt>
      <trkpt lat="45.0194" lon="2.63922">
        <ele>928.4</ele>
        <time>2021-11-05T15:50:49Z</time>
      </trkpt>
      <trkpt lat="45.01937" lon="2.63929">
        <ele>927.3</ele>
        <time>2021-11-05T15:51:19Z</time>
      </trkpt>
      <trkpt lat="45.01939" lon="2.63935">
        <ele>927</ele>
        <time>2021-11-05T15:51:23Z</time>
      </trkpt>
      <trkpt lat="45.01944" lon="2.63936">
        <ele>926.5</ele>
        <time>2021-11-05T15:51:28Z</time>
      </trkpt>
      <trkpt lat="45.01948" lon="2.63941">
        <ele>928.3</ele>
        <time>2021-11-05T15:55:41Z</time>
      </trkpt>
      <trkpt lat="45.01952" lon="2.6394">
        <ele>924.8</ele>
        <time>2021-11-05T15:58:05Z</time>
      </trkpt>
      <trkpt lat="45.01951" lon="2.63941">
        <ele>924.4</ele>
        <time>2021-11-05T16:07:22Z</time>
      </trkpt>
    </trkseg>
  </trk>
</gpx>